5PO YMMB-YCTM
Flight info
| Callsign | 5PO |
|---|---|
| Flight time | 1h 28m |
| Altitude | 7000 |
| Route | MB W188 TEMIS W696 LUTVU W465 AY W638 WG W431 ASUMU |
| Aircraft | SR22/L-SDGRY/S |
Departure
| Time | 2026-05-04 08:52 |
|---|---|
| Airport | Melbourne Moorabbin Airport (YMMB) |
Arrival
| Time | 2026-05-04 10:21 |
|---|---|
| Airport | Cootamundra Airport (YCTM) |
| Time | Latitude | Longitude | Altitude | Speed | Heading |
|---|---|---|---|---|---|
| 2026-05-04 08:40 | -37.97411 | 145.09299 | 54 ft | 0 kts | 2° |
| 2026-05-04 08:46 | -37.97396 | 145.09326 | 52 ft | 8 kts | 107° |
| 2026-05-04 08:47 | -37.97412 | 145.09432 | 52 ft | 16 kts | 100° |
| 2026-05-04 08:47 | -37.97429 | 145.09576 | 52 ft | 13 kts | 102° |
| 2026-05-04 08:47 | -37.97501 | 145.09625 | 51 ft | 17 kts | 176° |
| 2026-05-04 08:47 | -37.97648 | 145.09637 | 49 ft | 24 kts | 176° |
| 2026-05-04 08:48 | -37.97814 | 145.09652 | 47 ft | 24 kts | 175° |
| 2026-05-04 08:48 | -37.97970 | 145.09666 | 45 ft | 22 kts | 175° |
| 2026-05-04 08:48 | -37.98141 | 145.09680 | 43 ft | 26 kts | 175° |
| 2026-05-04 08:48 | -37.98318 | 145.09696 | 40 ft | 20 kts | 176° |
| 2026-05-04 08:49 | -37.98380 | 145.09794 | 40 ft | 18 kts | 84° |
| 2026-05-04 08:50 | -37.98371 | 145.09967 | 38 ft | 0 kts | 87° |
| 2026-05-04 08:51 | -37.98369 | 145.10005 | 38 ft | 13 kts | 82° |
| 2026-05-04 08:51 | -37.98264 | 145.10024 | 40 ft | 41 kts | 354° |
| 2026-05-04 08:52 | -37.97815 | 145.09989 | 107 ft | 78 kts | 354° |
| 2026-05-04 08:52 | -37.97306 | 145.09931 | 444 ft | 73 kts | 355° |
| 2026-05-04 08:52 | -37.96742 | 145.09906 | 708 ft | 83 kts | 353° |
| 2026-05-04 08:52 | -37.96161 | 145.09996 | 1064 ft | 94 kts | 25° |
| 2026-05-04 08:53 | -37.95790 | 145.10750 | 1452 ft | 95 kts | 30° |
| 2026-05-04 08:54 | -37.92027 | 145.14504 | 4013 ft | 106 kts | 17° |
| 2026-05-04 08:55 | -37.91427 | 145.15026 | 4388 ft | 104 kts | 11° |
| 2026-05-04 08:55 | -37.90811 | 145.15542 | 4764 ft | 110 kts | 18° |
| 2026-05-04 08:55 | -37.90206 | 145.16137 | 5150 ft | 110 kts | 18° |
| 2026-05-04 08:55 | -37.89590 | 145.16739 | 5545 ft | 112 kts | 19° |
| 2026-05-04 08:57 | -37.84598 | 145.21782 | 7035 ft | 176 kts | 26° |
| 2026-05-04 09:01 | -37.70295 | 145.35713 | 7031 ft | 184 kts | 26° |
| 2026-05-04 09:01 | -37.69280 | 145.36695 | 7029 ft | 184 kts | 27° |
| 2026-05-04 09:01 | -37.68263 | 145.37679 | 7030 ft | 184 kts | 26° |
| 2026-05-04 09:01 | -37.67258 | 145.38651 | 7033 ft | 184 kts | 26° |
| 2026-05-04 09:02 | -37.66240 | 145.39635 | 7034 ft | 185 kts | 27° |
| 2026-05-04 09:02 | -37.65216 | 145.40627 | 7038 ft | 184 kts | 27° |
| 2026-05-04 09:02 | -37.64196 | 145.41613 | 7036 ft | 185 kts | 26° |
| 2026-05-04 09:02 | -37.63174 | 145.42598 | 7031 ft | 185 kts | 27° |
| 2026-05-04 09:03 | -37.62155 | 145.43584 | 7043 ft | 183 kts | 27° |
| 2026-05-04 09:03 | -37.61157 | 145.44551 | 7043 ft | 183 kts | 26° |
| 2026-05-04 09:03 | -37.60138 | 145.45530 | 7046 ft | 185 kts | 26° |
| 2026-05-04 09:03 | -37.59117 | 145.46516 | 7055 ft | 184 kts | 26° |
| 2026-05-04 09:04 | -37.58102 | 145.47491 | 7043 ft | 184 kts | 26° |
| 2026-05-04 09:04 | -37.57078 | 145.48476 | 6985 ft | 186 kts | 26° |
| 2026-05-04 09:04 | -37.56046 | 145.49475 | 6982 ft | 187 kts | 26° |
| 2026-05-04 09:04 | -37.55019 | 145.50466 | 6981 ft | 185 kts | 26° |
| 2026-05-04 09:05 | -37.53999 | 145.51450 | 6983 ft | 184 kts | 26° |
| 2026-05-04 09:05 | -37.52977 | 145.52435 | 6978 ft | 185 kts | 26° |
| 2026-05-04 09:05 | -37.51968 | 145.53411 | 6981 ft | 185 kts | 27° |
| 2026-05-04 09:05 | -37.50950 | 145.54391 | 6980 ft | 183 kts | 27° |
| 2026-05-04 09:06 | -37.49933 | 145.55366 | 6972 ft | 184 kts | 27° |
| 2026-05-04 09:07 | -37.42984 | 145.62068 | 6983 ft | 178 kts | 27° |
| 2026-05-04 09:08 | -37.42000 | 145.63012 | 6989 ft | 178 kts | 27° |
| 2026-05-04 09:08 | -37.41020 | 145.63957 | 6985 ft | 177 kts | 27° |
| 2026-05-04 09:08 | -37.40039 | 145.64896 | 6987 ft | 176 kts | 27° |
| 2026-05-04 09:08 | -37.39086 | 145.65812 | 6985 ft | 174 kts | 26° |
| 2026-05-04 09:09 | -37.38109 | 145.66750 | 6984 ft | 175 kts | 27° |
| 2026-05-04 09:09 | -37.37156 | 145.67667 | 6990 ft | 174 kts | 27° |
| 2026-05-04 09:09 | -37.36189 | 145.68594 | 6989 ft | 175 kts | 27° |
| 2026-05-04 09:09 | -37.35221 | 145.69523 | 6994 ft | 174 kts | 27° |
| 2026-05-04 09:10 | -37.34254 | 145.70450 | 6991 ft | 175 kts | 27° |
| 2026-05-04 09:10 | -37.33285 | 145.71381 | 6995 ft | 176 kts | 27° |
| 2026-05-04 09:10 | -37.32312 | 145.72312 | 6997 ft | 176 kts | 27° |
| 2026-05-04 09:10 | -37.31333 | 145.73252 | 7001 ft | 177 kts | 27° |
| 2026-05-04 09:11 | -37.30356 | 145.74187 | 6998 ft | 177 kts | 27° |
| 2026-05-04 09:11 | -37.29374 | 145.75127 | 6997 ft | 177 kts | 27° |
| 2026-05-04 09:11 | -37.28392 | 145.76069 | 6998 ft | 178 kts | 26° |
| 2026-05-04 09:11 | -37.27414 | 145.77007 | 6997 ft | 177 kts | 27° |
| 2026-05-04 09:12 | -37.26437 | 145.77936 | 7006 ft | 176 kts | 26° |
| 2026-05-04 09:12 | -37.25475 | 145.78859 | 7010 ft | 177 kts | 27° |
| 2026-05-04 09:14 | -37.18406 | 145.84824 | 7020 ft | 173 kts | 16° |
| 2026-05-04 09:14 | -37.17326 | 145.85487 | 7022 ft | 172 kts | 15° |
| 2026-05-04 09:14 | -37.16250 | 145.86139 | 7008 ft | 171 kts | 16° |
| 2026-05-04 09:14 | -37.15191 | 145.86780 | 7019 ft | 168 kts | 15° |
| 2026-05-04 09:15 | -37.14135 | 145.87418 | 7016 ft | 168 kts | 15° |
| 2026-05-04 09:15 | -37.13079 | 145.88055 | 7025 ft | 167 kts | 16° |
| 2026-05-04 09:15 | -37.12026 | 145.88688 | 7021 ft | 168 kts | 15° |
| 2026-05-04 09:15 | -37.10965 | 145.89328 | 7021 ft | 170 kts | 15° |
| 2026-05-04 09:17 | -37.02338 | 145.94530 | 7025 ft | 174 kts | 16° |
| 2026-05-04 09:18 | -37.01246 | 145.95185 | 7023 ft | 174 kts | 16° |
| 2026-05-04 09:18 | -37.00150 | 145.95844 | 7025 ft | 174 kts | 16° |
| 2026-05-04 09:18 | -36.99056 | 145.96502 | 7023 ft | 174 kts | 16° |
| 2026-05-04 09:18 | -36.97964 | 145.97160 | 7023 ft | 174 kts | 16° |
| 2026-05-04 09:19 | -36.96875 | 145.97816 | 7023 ft | 174 kts | 15° |
| 2026-05-04 09:19 | -36.95789 | 145.98466 | 7029 ft | 173 kts | 15° |
| 2026-05-04 09:19 | -36.94702 | 145.99118 | 7022 ft | 173 kts | 16° |
| 2026-05-04 09:19 | -36.93627 | 145.99768 | 7027 ft | 174 kts | 16° |
| 2026-05-04 09:20 | -36.92537 | 146.00421 | 7029 ft | 173 kts | 15° |
| 2026-05-04 09:20 | -36.91449 | 146.01072 | 7027 ft | 173 kts | 16° |
| 2026-05-04 09:20 | -36.90360 | 146.01726 | 7025 ft | 174 kts | 16° |
| 2026-05-04 09:20 | -36.89267 | 146.02383 | 7029 ft | 174 kts | 16° |
| 2026-05-04 09:21 | -36.88174 | 146.03038 | 7027 ft | 174 kts | 16° |
| 2026-05-04 09:21 | -36.87079 | 146.03694 | 7028 ft | 175 kts | 16° |
| 2026-05-04 09:21 | -36.85986 | 146.04351 | 7028 ft | 173 kts | 17° |
| 2026-05-04 09:21 | -36.84902 | 146.05004 | 7030 ft | 174 kts | 16° |
| 2026-05-04 09:22 | -36.83821 | 146.05647 | 7032 ft | 170 kts | 15° |
| 2026-05-04 09:22 | -36.82747 | 146.06283 | 7041 ft | 172 kts | 16° |
| 2026-05-04 09:22 | -36.81658 | 146.06939 | 7041 ft | 174 kts | 16° |
| 2026-05-04 09:22 | -36.80574 | 146.07588 | 7038 ft | 175 kts | 16° |
| 2026-05-04 09:23 | -36.79472 | 146.08250 | 7038 ft | 175 kts | 16° |
| 2026-05-04 09:23 | -36.78375 | 146.08904 | 7043 ft | 174 kts | 17° |
| 2026-05-04 09:23 | -36.77276 | 146.09560 | 7044 ft | 176 kts | 16° |
| 2026-05-04 09:23 | -36.76170 | 146.10221 | 7039 ft | 176 kts | 17° |
| 2026-05-04 09:25 | -36.68511 | 146.14788 | 7039 ft | 172 kts | 17° |
| 2026-05-04 09:25 | -36.67426 | 146.15435 | 7039 ft | 174 kts | 17° |
| 2026-05-04 09:26 | -36.66331 | 146.16089 | 7037 ft | 175 kts | 17° |
| 2026-05-04 09:26 | -36.65230 | 146.16748 | 7037 ft | 175 kts | 17° |
| 2026-05-04 09:26 | -36.64124 | 146.17406 | 7039 ft | 175 kts | 17° |
| 2026-05-04 09:26 | -36.63033 | 146.18054 | 7042 ft | 176 kts | 17° |
| 2026-05-04 09:27 | -36.61928 | 146.18710 | 7039 ft | 176 kts | 17° |
| 2026-05-04 09:27 | -36.60821 | 146.19370 | 7041 ft | 176 kts | 17° |
| 2026-05-04 09:27 | -36.59709 | 146.20030 | 7042 ft | 177 kts | 17° |
| 2026-05-04 09:27 | -36.58595 | 146.20695 | 7042 ft | 177 kts | 17° |
| 2026-05-04 09:28 | -36.57483 | 146.21354 | 7042 ft | 176 kts | 16° |
| 2026-05-04 09:28 | -36.56373 | 146.22011 | 7042 ft | 177 kts | 17° |
| 2026-05-04 09:28 | -36.55261 | 146.22671 | 7043 ft | 177 kts | 17° |
| 2026-05-04 09:28 | -36.54152 | 146.23330 | 7043 ft | 177 kts | 17° |
| 2026-05-04 09:29 | -36.53039 | 146.23990 | 7044 ft | 177 kts | 17° |
| 2026-05-04 09:29 | -36.51925 | 146.24653 | 7044 ft | 178 kts | 17° |
| 2026-05-04 09:29 | -36.50808 | 146.25313 | 7045 ft | 178 kts | 17° |
| 2026-05-04 09:29 | -36.49690 | 146.25977 | 7043 ft | 178 kts | 17° |
| 2026-05-04 09:30 | -36.48571 | 146.26639 | 7044 ft | 178 kts | 17° |
| 2026-05-04 09:30 | -36.47452 | 146.27303 | 7044 ft | 178 kts | 17° |
| 2026-05-04 09:30 | -36.46331 | 146.27966 | 7047 ft | 178 kts | 17° |
| 2026-05-04 09:30 | -36.45209 | 146.28631 | 7047 ft | 179 kts | 17° |
| 2026-05-04 09:31 | -36.44084 | 146.29296 | 7047 ft | 179 kts | 17° |
| 2026-05-04 09:31 | -36.42972 | 146.29957 | 7044 ft | 179 kts | 18° |
| 2026-05-04 09:31 | -36.41955 | 146.30905 | 7046 ft | 189 kts | 39° |
| 2026-05-04 09:31 | -36.41181 | 146.32252 | 7047 ft | 193 kts | 50° |
| 2026-05-04 09:32 | -36.40450 | 146.33650 | 7050 ft | 193 kts | 49° |
| 2026-05-04 09:32 | -36.39711 | 146.35040 | 7049 ft | 193 kts | 49° |
| 2026-05-04 09:34 | -36.34544 | 146.44774 | 7052 ft | 193 kts | 49° |
| 2026-05-04 09:34 | -36.33805 | 146.46164 | 7050 ft | 193 kts | 49° |
| 2026-05-04 09:34 | -36.33067 | 146.47552 | 7053 ft | 193 kts | 49° |
| 2026-05-04 09:34 | -36.32328 | 146.48941 | 7054 ft | 193 kts | 49° |
| 2026-05-04 09:35 | -36.31588 | 146.50331 | 7051 ft | 193 kts | 49° |
| 2026-05-04 09:35 | -36.30849 | 146.51725 | 7051 ft | 194 kts | 49° |
| 2026-05-04 09:35 | -36.30105 | 146.53121 | 7055 ft | 193 kts | 49° |
| 2026-05-04 09:35 | -36.29367 | 146.54510 | 7057 ft | 192 kts | 49° |
| 2026-05-04 09:37 | -36.24205 | 146.64182 | 7069 ft | 193 kts | 49° |
| 2026-05-04 09:37 | -36.23461 | 146.65574 | 7068 ft | 193 kts | 49° |
| 2026-05-04 09:38 | -36.22959 | 146.66512 | 7068 ft | 193 kts | 49° |
| 2026-05-04 09:38 | -36.22217 | 146.67900 | 7067 ft | 193 kts | 49° |
| 2026-05-04 09:38 | -36.21473 | 146.69288 | 7067 ft | 194 kts | 49° |
| 2026-05-04 09:38 | -36.20720 | 146.70694 | 6963 ft | 198 kts | 49° |
| 2026-05-04 09:39 | -36.19958 | 146.72117 | 6938 ft | 197 kts | 49° |
| 2026-05-04 09:39 | -36.19205 | 146.73527 | 6936 ft | 195 kts | 49° |
| 2026-05-04 09:39 | -36.18456 | 146.74921 | 6938 ft | 194 kts | 49° |
| 2026-05-04 09:39 | -36.17710 | 146.76310 | 6936 ft | 194 kts | 49° |
| 2026-05-04 09:40 | -36.16975 | 146.77681 | 6938 ft | 194 kts | 49° |
| 2026-05-04 09:40 | -36.16226 | 146.79076 | 6934 ft | 194 kts | 49° |
| 2026-05-04 09:40 | -36.15476 | 146.80473 | 6935 ft | 194 kts | 49° |
| 2026-05-04 09:40 | -36.14729 | 146.81863 | 6931 ft | 194 kts | 49° |
| 2026-05-04 09:41 | -36.13986 | 146.83245 | 6932 ft | 193 kts | 49° |
| 2026-05-04 09:42 | -36.08810 | 146.92862 | 6928 ft | 191 kts | 49° |
| 2026-05-04 09:43 | -36.08071 | 146.94234 | 6933 ft | 191 kts | 49° |
| 2026-05-04 09:43 | -36.07335 | 146.95598 | 6934 ft | 191 kts | 48° |
| 2026-05-04 09:43 | -36.06426 | 146.96729 | 6932 ft | 182 kts | 26° |
| 2026-05-04 09:43 | -36.05323 | 146.97430 | 6936 ft | 177 kts | 15° |
| 2026-05-04 09:44 | -36.04210 | 146.98052 | 6935 ft | 178 kts | 17° |
| 2026-05-04 09:44 | -36.03073 | 146.98698 | 6934 ft | 178 kts | 17° |
| 2026-05-04 09:44 | -36.01962 | 146.99328 | 6934 ft | 178 kts | 16° |
| 2026-05-04 09:46 | -35.94062 | 147.03775 | 6934 ft | 178 kts | 16° |
| 2026-05-04 09:46 | -35.92934 | 147.04411 | 6938 ft | 178 kts | 16° |
| 2026-05-04 09:46 | -35.91803 | 147.05045 | 6939 ft | 179 kts | 16° |
| 2026-05-04 09:47 | -35.90666 | 147.05682 | 6937 ft | 179 kts | 17° |
| 2026-05-04 09:47 | -35.89533 | 147.06319 | 6937 ft | 179 kts | 15° |
| 2026-05-04 09:49 | -35.81669 | 147.10731 | 6942 ft | 177 kts | 16° |
| 2026-05-04 09:49 | -35.80545 | 147.11360 | 6943 ft | 178 kts | 16° |
| 2026-05-04 09:49 | -35.79419 | 147.11993 | 6951 ft | 178 kts | 16° |
| 2026-05-04 09:51 | -35.72629 | 147.15793 | 6948 ft | 179 kts | 17° |
| 2026-05-04 09:51 | -35.71491 | 147.16430 | 6948 ft | 179 kts | 16° |
| 2026-05-04 09:51 | -35.70354 | 147.17066 | 6947 ft | 179 kts | 17° |
| 2026-05-04 09:51 | -35.69213 | 147.17703 | 6952 ft | 180 kts | 16° |
| 2026-05-04 09:52 | -35.68090 | 147.18331 | 6947 ft | 180 kts | 17° |
| 2026-05-04 09:52 | -35.66949 | 147.18968 | 6953 ft | 180 kts | 17° |
| 2026-05-04 09:52 | -35.65806 | 147.19607 | 6951 ft | 180 kts | 16° |
| 2026-05-04 09:52 | -35.64665 | 147.20243 | 6951 ft | 179 kts | 16° |
| 2026-05-04 09:53 | -35.63527 | 147.20878 | 6950 ft | 179 kts | 16° |
| 2026-05-04 09:53 | -35.62391 | 147.21511 | 6951 ft | 179 kts | 16° |
| 2026-05-04 09:53 | -35.61256 | 147.22144 | 6949 ft | 179 kts | 17° |
| 2026-05-04 09:53 | -35.60119 | 147.22778 | 6957 ft | 179 kts | 16° |
| 2026-05-04 09:54 | -35.58996 | 147.23403 | 6955 ft | 180 kts | 16° |
| 2026-05-04 09:54 | -35.57857 | 147.24038 | 6954 ft | 180 kts | 17° |
| 2026-05-04 09:54 | -35.56716 | 147.24674 | 6952 ft | 180 kts | 17° |
| 2026-05-04 09:54 | -35.55573 | 147.25310 | 6953 ft | 180 kts | 17° |
| 2026-05-04 09:55 | -35.54428 | 147.25947 | 6950 ft | 180 kts | 16° |
| 2026-05-04 09:55 | -35.53299 | 147.26574 | 6953 ft | 180 kts | 17° |
| 2026-05-04 09:55 | -35.52154 | 147.27212 | 6951 ft | 181 kts | 17° |
| 2026-05-04 09:55 | -35.51005 | 147.27852 | 6956 ft | 181 kts | 17° |
| 2026-05-04 09:56 | -35.49855 | 147.28490 | 6952 ft | 181 kts | 17° |
| 2026-05-04 09:56 | -35.48719 | 147.29122 | 6955 ft | 181 kts | 17° |
| 2026-05-04 09:56 | -35.47563 | 147.29763 | 6954 ft | 182 kts | 17° |
| 2026-05-04 09:56 | -35.46404 | 147.30407 | 6956 ft | 182 kts | 17° |
| 2026-05-04 09:57 | -35.45251 | 147.31047 | 6954 ft | 182 kts | 17° |
| 2026-05-04 09:57 | -35.44114 | 147.31677 | 6952 ft | 181 kts | 17° |
| 2026-05-04 09:57 | -35.42961 | 147.32318 | 6957 ft | 181 kts | 17° |
| 2026-05-04 09:57 | -35.41808 | 147.32956 | 6957 ft | 182 kts | 17° |
| 2026-05-04 09:58 | -35.40657 | 147.33595 | 6963 ft | 181 kts | 17° |
| 2026-05-04 09:58 | -35.39503 | 147.34235 | 6961 ft | 182 kts | 17° |
| 2026-05-04 09:58 | -35.38349 | 147.34874 | 6962 ft | 182 kts | 17° |
| 2026-05-04 10:00 | -35.30233 | 147.39367 | 6963 ft | 183 kts | 17° |
| 2026-05-04 10:00 | -35.29084 | 147.40000 | 6964 ft | 183 kts | 17° |
| 2026-05-04 10:02 | -35.20952 | 147.44489 | 6971 ft | 184 kts | 17° |
| 2026-05-04 10:04 | -35.13809 | 147.51152 | 6975 ft | 195 kts | 45° |
| 2026-05-04 10:04 | -35.12964 | 147.52453 | 6972 ft | 195 kts | 45° |
| 2026-05-04 10:04 | -35.12123 | 147.53745 | 6973 ft | 194 kts | 45° |
| 2026-05-04 10:04 | -35.11281 | 147.55038 | 6972 ft | 194 kts | 45° |
| 2026-05-04 10:05 | -35.10448 | 147.56317 | 6974 ft | 194 kts | 45° |
| 2026-05-04 10:05 | -35.09606 | 147.57613 | 6968 ft | 194 kts | 45° |
| 2026-05-04 10:05 | -35.08764 | 147.58902 | 6973 ft | 194 kts | 45° |
| 2026-05-04 10:05 | -35.07923 | 147.60195 | 6971 ft | 194 kts | 45° |
| 2026-05-04 10:06 | -35.07082 | 147.61484 | 6972 ft | 194 kts | 45° |
| 2026-05-04 10:06 | -35.06242 | 147.62769 | 6974 ft | 194 kts | 45° |
| 2026-05-04 10:06 | -35.05400 | 147.64063 | 6981 ft | 195 kts | 45° |
| 2026-05-04 10:08 | -35.00331 | 147.71821 | 6974 ft | 195 kts | 45° |
| 2026-05-04 10:08 | -34.99484 | 147.73117 | 6973 ft | 194 kts | 45° |
| 2026-05-04 10:08 | -34.98653 | 147.74386 | 6975 ft | 194 kts | 45° |
| 2026-05-04 10:08 | -34.97810 | 147.75673 | 6976 ft | 194 kts | 45° |
| 2026-05-04 10:09 | -34.96969 | 147.76958 | 6974 ft | 194 kts | 45° |
| 2026-05-04 10:09 | -34.96125 | 147.78247 | 6972 ft | 194 kts | 45° |
| 2026-05-04 10:09 | -34.95283 | 147.79532 | 6976 ft | 193 kts | 45° |
| 2026-05-04 10:09 | -34.94443 | 147.80813 | 6976 ft | 193 kts | 45° |
| 2026-05-04 10:10 | -34.93603 | 147.82095 | 6975 ft | 193 kts | 45° |
| 2026-05-04 10:10 | -34.92765 | 147.83372 | 6985 ft | 192 kts | 45° |
| 2026-05-04 10:10 | -34.91928 | 147.84646 | 6995 ft | 192 kts | 45° |
| 2026-05-04 10:10 | -34.91102 | 147.85903 | 7000 ft | 193 kts | 45° |
| 2026-05-04 10:11 | -34.90260 | 147.87186 | 6995 ft | 193 kts | 45° |
| 2026-05-04 10:11 | -34.89424 | 147.88465 | 6994 ft | 193 kts | 45° |
| 2026-05-04 10:11 | -34.88581 | 147.89742 | 6997 ft | 193 kts | 44° |
| 2026-05-04 10:11 | -34.87740 | 147.91018 | 6994 ft | 193 kts | 45° |
| 2026-05-04 10:12 | -34.86910 | 147.92281 | 6995 ft | 193 kts | 44° |
| 2026-05-04 10:12 | -34.86068 | 147.93562 | 6993 ft | 193 kts | 44° |
| 2026-05-04 10:12 | -34.85226 | 147.94839 | 6907 ft | 192 kts | 45° |
| 2026-05-04 10:12 | -34.84428 | 147.96084 | 6749 ft | 181 kts | 45° |
| 2026-05-04 10:13 | -34.83679 | 147.97287 | 6555 ft | 178 kts | 52° |
| 2026-05-04 10:13 | -34.83123 | 147.98650 | 6329 ft | 177 kts | 58° |
| 2026-05-04 10:13 | -34.82586 | 147.99952 | 6091 ft | 172 kts | 57° |
| 2026-05-04 10:13 | -34.82040 | 148.01248 | 5791 ft | 172 kts | 58° |
| 2026-05-04 10:14 | -34.81499 | 148.02551 | 5491 ft | 172 kts | 58° |
| 2026-05-04 10:14 | -34.80961 | 148.03846 | 5188 ft | 171 kts | 58° |
| 2026-05-04 10:16 | -34.74869 | 148.05421 | 3412 ft | 107 kts | 347° |
| 2026-05-04 10:16 | -34.74153 | 148.05321 | 3281 ft | 100 kts | 347° |
| 2026-05-04 10:16 | -34.73488 | 148.05229 | 3152 ft | 95 kts | 347° |
| 2026-05-04 10:16 | -34.72840 | 148.05136 | 3037 ft | 91 kts | 346° |
| 2026-05-04 10:17 | -34.72231 | 148.05042 | 2917 ft | 87 kts | 345° |
| 2026-05-04 10:17 | -34.71641 | 148.04939 | 2803 ft | 85 kts | 345° |
| 2026-05-04 10:19 | -34.67712 | 148.04308 | 2119 ft | 85 kts | 359° |
| 2026-05-04 10:19 | -34.67094 | 148.04337 | 2036 ft | 90 kts | 353° |
| 2026-05-04 10:19 | -34.66485 | 148.04292 | 1992 ft | 87 kts | 347° |
| 2026-05-04 10:19 | -34.65890 | 148.04200 | 1909 ft | 86 kts | 345° |
| 2026-05-04 10:20 | -34.65287 | 148.04080 | 1764 ft | 89 kts | 349° |
| 2026-05-04 10:20 | -34.64667 | 148.03987 | 1638 ft | 90 kts | 351° |
| 2026-05-04 10:20 | -34.64039 | 148.03901 | 1500 ft | 91 kts | 350° |
| 2026-05-04 10:20 | -34.63404 | 148.03807 | 1323 ft | 94 kts | 350° |
| 2026-05-04 10:21 | -34.62783 | 148.03716 | 1155 ft | 82 kts | 351° |
| 2026-05-04 10:21 | -34.62329 | 148.03649 | 1110 ft | 47 kts | 353° |
| 2026-05-04 10:21 | -34.62017 | 148.03607 | 1107 ft | 44 kts | 353° |
| 2026-05-04 10:21 | -34.61758 | 148.03561 | 1104 ft | 19 kts | 332° |
| 2026-05-04 10:22 | -34.61828 | 148.03580 | 1107 ft | 15 kts | 176° |
| 2026-05-04 10:22 | -34.61952 | 148.03597 | 1107 ft | 20 kts | 172° |
| 2026-05-04 10:22 | -34.62104 | 148.03619 | 1109 ft | 23 kts | 173° |
| 2026-05-04 10:23 | -34.62214 | 148.03633 | 1110 ft | 25 kts | 174° |
| 2026-05-04 10:23 | -34.62390 | 148.03656 | 1112 ft | 26 kts | 173° |